Terminal Aerodrome Forecast
Issued by NWS Charleston, WV

Current Version | Previous Version | Graphics & Text | Print | Product List | Glossary On
Versions: 1 2 3 4 5 6 7 8 9 10 11 12 13 14 15 16 17 18 19 20 21 22 23 24
000
FTUS41 KRLX 092300 RRA
TAFCRW
TAF
KCRW 092345Z 1000/1024 VRB03KT P6SM SCT050
     FM100600 00000KT 4SM BR SCT050
     FM100800 00000KT 1/2SM FG BKN001
      TEMPO 1008/1012 2SM BR SCT001
     FM101200 00000KT 2SM BR SCT002
     FM101300 00000KT P6SM SCT020
     FM101500 31004KT P6SM SCT050=

USA.gov is the U.S. government's official web portal to all federal, state and local government web resources and services.